sensor_id;sensor_type;location;lat;lon;timestamp;pressure;altitude;pressure_sealevel;temperature;humidity
35647;BME280;28680;45.642;13.756;2023-07-28T00:01:17;101045.59;;;22.63;100.00
35647;BME280;28680;45.642;13.756;2023-07-28T00:03:43;101039.22;;;22.64;100.00
35647;BME280;28680;45.642;13.756;2023-07-28T00:06:09;101031.84;;;22.66;100.00
35647;BME280;28680;45.642;13.756;2023-07-28T00:08:34;101037.69;;;22.54;100.00
35647;BME280;28680;45.642;13.756;2023-07-28T00:11:00;101031.13;;;22.57;100.00
35647;BME280;28680;45.642;13.756;2023-07-28T00:13:26;101033.44;;;22.60;100.00
35647;BME280;28680;45.642;13.756;2023-07-28T00:15:52;101033.38;;;22.53;100.00
35647;BME280;28680;45.642;13.756;2023-07-28T00:18:18;101031.97;;;22.57;100.00
35647;BME280;28680;45.642;13.756;2023-07-28T00:20:46;101036.25;;;22.52;100.00
35647;BME280;28680;45.642;13.756;2023-07-28T00:23:12;101033.81;;;22.57;100.00
35647;BME280;28680;45.642;13.756;2023-07-28T00:25:38;101030.31;;;22.56;100.00
35647;BME280;28680;45.642;13.756;2023-07-28T00:28:04;101027.81;;;22.55;100.00
35647;BME280;28680;45.642;13.756;2023-07-28T00:30:31;101025.38;;;22.53;100.00
35647;BME280;28680;45.642;13.756;2023-07-28T00:32:57;101023.69;;;22.52;100.00
35647;BME280;28680;45.642;13.756;2023-07-28T00:35:23;101027.00;;;22.54;100.00
35647;BME280;28680;45.642;13.756;2023-07-28T00:37:49;101029.41;;;22.49;100.00
35647;BME280;28680;45.642;13.756;2023-07-28T00:40:15;101017.53;;;22.52;100.00
35647;BME280;28680;45.642;13.756;2023-07-28T00:42:41;101020.19;;;22.52;100.00
35647;BME280;28680;45.642;13.756;2023-07-28T00:45:08;101024.50;;;22.53;100.00
35647;BME280;28680;45.642;13.756;2023-07-28T00:47:35;101015.84;;;22.51;100.00
35647;BME280;28680;45.642;13.756;2023-07-28T00:50:02;101013.00;;;22.52;100.00
35647;BME280;28680;45.642;13.756;2023-07-28T00:52:29;101005.78;;;22.53;100.00
35647;BME280;28680;45.642;13.756;2023-07-28T00:54:55;101005.59;;;22.54;100.00
35647;BME280;28680;45.642;13.756;2023-07-28T00:57:21;101003.06;;;22.46;100.00
35647;BME280;28680;45.642;13.756;2023-07-28T00:59:47;100995.69;;;22.48;100.00
35647;BME280;28680;45.642;13.756;2023-07-28T01:02:13;101007.66;;;22.52;100.00
35647;BME280;28680;45.642;13.756;2023-07-28T01:04:40;100995.31;;;22.51;100.00
35647;BME280;28680;45.642;13.756;2023-07-28T01:10:28;100999.13;;;22.42;100.00
35647;BME280;28680;45.642;13.756;2023-07-28T01:12:55;100990.25;;;22.42;100.00
35647;BME280;28680;45.642;13.756;2023-07-28T01:15:21;100990.72;;;22.45;100.00
35647;BME280;28680;45.642;13.756;2023-07-28T01:17:47;100987.66;;;22.48;100.00
35647;BME280;28680;45.642;13.756;2023-07-28T01:20:13;100978.81;;;22.48;100.00
35647;BME280;28680;45.642;13.756;2023-07-28T01:23:08;100976.06;;;22.41;100.00
35647;BME280;28680;45.642;13.756;2023-07-28T01:26:01;100984.28;;;22.39;100.00
35647;BME280;28680;45.642;13.756;2023-07-28T01:28:31;100979.44;;;22.28;100.00
35647;BME280;28680;45.642;13.756;2023-07-28T01:31:01;100981.63;;;22.25;100.00
35647;BME280;28680;45.642;13.756;2023-07-28T01:33:27;100970.03;;;22.32;100.00
35647;BME280;28680;45.642;13.756;2023-07-28T01:35:53;100963.22;;;22.30;100.00
35647;BME280;28680;45.642;13.756;2023-07-28T01:38:19;100966.47;;;22.25;100.00
35647;BME280;28680;45.642;13.756;2023-07-28T01:40:45;100967.13;;;22.27;100.00
35647;BME280;28680;45.642;13.756;2023-07-28T01:43:11;100963.41;;;22.28;100.00
35647;BME280;28680;45.642;13.756;2023-07-28T01:45:38;100968.13;;;22.26;100.00
35647;BME280;28680;45.642;13.756;2023-07-28T01:48:04;100956.75;;;22.24;100.00
35647;BME280;28680;45.642;13.756;2023-07-28T01:50:31;100959.63;;;22.23;100.00
35647;BME280;28680;45.642;13.756;2023-07-28T01:52:57;100955.94;;;22.24;100.00
35647;BME280;28680;45.642;13.756;2023-07-28T01:55:23;100955.13;;;22.23;100.00
35647;BME280;28680;45.642;13.756;2023-07-28T01:57:55;100945.00;;;22.18;100.00
35647;BME280;28680;45.642;13.756;2023-07-28T02:00:21;100944.16;;;22.18;100.00
35647;BME280;28680;45.642;13.756;2023-07-28T02:02:49;100928.47;;;22.08;100.00
35647;BME280;28680;45.642;13.756;2023-07-28T02:05:15;100940.59;;;22.11;100.00
35647;BME280;28680;45.642;13.756;2023-07-28T02:07:42;100940.59;;;22.11;100.00
35647;BME280;28680;45.642;13.756;2023-07-28T02:10:09;100926.97;;;22.06;100.00
35647;BME280;28680;45.642;13.756;2023-07-28T02:12:37;100925.53;;;22.03;100.00
35647;BME280;28680;45.642;13.756;2023-07-28T02:15:05;100925.59;;;22.10;100.00
35647;BME280;28680;45.642;13.756;2023-07-28T02:17:31;100924.94;;;22.08;100.00
35647;BME280;28680;45.642;13.756;2023-07-28T02:19:57;100934.25;;;22.12;100.00
35647;BME280;28680;45.642;13.756;2023-07-28T02:22:23;100927.25;;;22.11;100.00
35647;BME280;28680;45.642;13.756;2023-07-28T02:24:50;100919.03;;;22.12;100.00
35647;BME280;28680;45.642;13.756;2023-07-28T02:27:16;100910.19;;;22.12;100.00
35647;BME280;28680;45.642;13.756;2023-07-28T02:29:42;100915.72;;;22.10;100.00
35647;BME280;28680;45.642;13.756;2023-07-28T02:32:08;100907.25;;;22.07;100.00
35647;BME280;28680;45.642;13.756;2023-07-28T02:34:35;100904.97;;;22.04;100.00
35647;BME280;28680;45.642;13.756;2023-07-28T02:37:02;100906.81;;;22.03;100.00
35647;BME280;28680;45.642;13.756;2023-07-28T02:39:28;100910.72;;;22.00;100.00
35647;BME280;28680;45.642;13.756;2023-07-28T02:41:54;100911.97;;;22.05;100.00
35647;BME280;28680;45.642;13.756;2023-07-28T02:44:20;100922.22;;;22.01;100.00
35647;BME280;28680;45.642;13.756;2023-07-28T02:46:46;100925.91;;;22.00;100.00
35647;BME280;28680;45.642;13.756;2023-07-28T02:49:12;100921.94;;;21.96;100.00
35647;BME280;28680;45.642;13.756;2023-07-28T02:51:38;100926.22;;;21.90;100.00
35647;BME280;28680;45.642;13.756;2023-07-28T02:54:05;100923.72;;;21.89;100.00
35647;BME280;28680;45.642;13.756;2023-07-28T02:56:31;100921.91;;;21.89;100.00
35647;BME280;28680;45.642;13.756;2023-07-28T02:59:00;100925.53;;;21.82;100.00
35647;BME280;28680;45.642;13.756;2023-07-28T03:01:30;100933.31;;;21.83;100.00
35647;BME280;28680;45.642;13.756;2023-07-28T03:04:02;100935.53;;;21.79;100.00
35647;BME280;28680;45.642;13.756;2023-07-28T03:06:33;100931.41;;;21.77;100.00
35647;BME280;28680;45.642;13.756;2023-07-28T03:08:59;100934.91;;;21.77;100.00
35647;BME280;28680;45.642;13.756;2023-07-28T03:11:43;100939.88;;;21.80;100.00
35647;BME280;28680;45.642;13.756;2023-07-28T03:14:09;100944.59;;;21.78;100.00
35647;BME280;28680;45.642;13.756;2023-07-28T03:16:35;100947.91;;;21.80;100.00
35647;BME280;28680;45.642;13.756;2023-07-28T03:19:01;100951.41;;;21.81;100.00
35647;BME280;28680;45.642;13.756;2023-07-28T03:21:30;100950.75;;;21.79;100.00
35647;BME280;28680;45.642;13.756;2023-07-28T03:23:57;100942.94;;;21.77;100.00
35647;BME280;28680;45.642;13.756;2023-07-28T03:26:23;100949.47;;;21.75;100.00
35647;BME280;28680;45.642;13.756;2023-07-28T03:28:49;100957.88;;;21.72;100.00
35647;BME280;28680;45.642;13.756;2023-07-28T03:31:15;100950.69;;;21.72;100.00
35647;BME280;28680;45.642;13.756;2023-07-28T03:33:41;100948.22;;;21.71;100.00
35647;BME280;28680;45.642;13.756;2023-07-28T03:36:07;100957.81;;;21.65;100.00
35647;BME280;28680;45.642;13.756;2023-07-28T03:38:34;100966.91;;;21.71;100.00
35647;BME280;28680;45.642;13.756;2023-07-28T03:41:00;100963.41;;;21.70;100.00
35647;BME280;28680;45.642;13.756;2023-07-28T03:43:26;100958.91;;;21.71;100.00
35647;BME280;28680;45.642;13.756;2023-07-28T03:45:52;100957.81;;;21.65;100.00
35647;BME280;28680;45.642;13.756;2023-07-28T03:48:19;100954.56;;;21.70;100.00
35647;BME280;28680;45.642;13.756;2023-07-28T03:50:45;100958.53;;;21.74;100.00
35647;BME280;28680;45.642;13.756;2023-07-28T03:53:11;100958.31;;;21.75;100.00
35647;BME280;28680;45.642;13.756;2023-07-28T03:55:37;100953.56;;;21.71;100.00
35647;BME280;28680;45.642;13.756;2023-07-28T03:58:03;100964.25;;;21.71;100.00
35647;BME280;28680;45.642;13.756;2023-07-28T04:00:30;100958.25;;;21.69;100.00
35647;BME280;28680;45.642;13.756;2023-07-28T04:02:56;100964.75;;;21.81;100.00
35647;BME280;28680;45.642;13.756;2023-07-28T04:05:22;100956.91;;;21.79;100.00
35647;BME280;28680;45.642;13.756;2023-07-28T04:07:48;100960.69;;;21.85;100.00
35647;BME280;28680;45.642;13.756;2023-07-28T04:10:15;100964.66;;;21.89;100.00
35647;BME280;28680;45.642;13.756;2023-07-28T04:12:41;100957.09;;;21.93;100.00
35647;BME280;28680;45.642;13.756;2023-07-28T04:15:08;100966.09;;;21.92;100.00
35647;BME280;28680;45.642;13.756;2023-07-28T04:17:34;100962.44;;;21.93;100.00
35647;BME280;28680;45.642;13.756;2023-07-28T04:20:00;100959.38;;;21.96;100.00
35647;BME280;28680;45.642;13.756;2023-07-28T04:22:26;100961.41;;;21.94;100.00
35647;BME280;28680;45.642;13.756;2023-07-28T04:24:53;100962.44;;;21.93;100.00
35647;BME280;28680;45.642;13.756;2023-07-28T04:27:20;100970.00;;;21.89;100.00
35647;BME280;28680;45.642;13.756;2023-07-28T04:29:47;100960.19;;;21.96;100.00
35647;BME280;28680;45.642;13.756;2023-07-28T04:32:18;100951.44;;;22.03;100.00
35647;BME280;28680;45.642;13.756;2023-07-28T04:34:44;100953.91;;;22.04;100.00
35647;BME280;28680;45.642;13.756;2023-07-28T04:37:15;100956.38;;;22.06;100.00
35647;BME280;28680;45.642;13.756;2023-07-28T04:40:01;100959.03;;;22.06;100.00
35647;BME280;28680;45.642;13.756;2023-07-28T04:42:33;100948.34;;;22.06;100.00
35647;BME280;28680;45.642;13.756;2023-07-28T04:44:59;100943.66;;;22.08;100.00
35647;BME280;28680;45.642;13.756;2023-07-28T04:47:25;100937.75;;;22.12;100.00
35647;BME280;28680;45.642;13.756;2023-07-28T04:49:51;100951.75;;;22.14;100.00
35647;BME280;28680;45.642;13.756;2023-07-28T04:52:37;100952.13;;;22.11;100.00
35647;BME280;28680;45.642;13.756;2023-07-28T04:55:25;100962.25;;;22.16;100.00
35647;BME280;28680;45.642;13.756;2023-07-28T04:57:53;100962.25;;;22.16;100.00
35647;BME280;28680;45.642;13.756;2023-07-28T05:00:21;100968.41;;;22.16;100.00
35647;BME280;28680;45.642;13.756;2023-07-28T05:02:47;100967.41;;;22.17;100.00
35647;BME280;28680;45.642;13.756;2023-07-28T05:05:13;100969.50;;;22.22;100.00
35647;BME280;28680;45.642;13.756;2023-07-28T05:07:39;100967.63;;;22.23;100.00
35647;BME280;28680;45.642;13.756;2023-07-28T05:10:06;100971.44;;;22.28;100.00
35647;BME280;28680;45.642;13.756;2023-07-28T05:12:32;100959.13;;;22.34;100.00
35647;BME280;28680;45.642;13.756;2023-07-28T05:14:59;100954.63;;;22.34;100.00
35647;BME280;28680;45.642;13.756;2023-07-28T05:17:25;100956.72;;;22.39;100.00
35647;BME280;28680;45.642;13.756;2023-07-28T05:20:14;100956.13;;;22.44;100.00
35647;BME280;28680;45.642;13.756;2023-07-28T05:22:52;100953.91;;;22.47;100.00
35647;BME280;28680;45.642;13.756;2023-07-28T05:25:20;100950.47;;;22.53;100.00
35647;BME280;28680;45.642;13.756;2023-07-28T05:27:47;100947.22;;;22.58;100.00
35647;BME280;28680;45.642;13.756;2023-07-28T05:30:14;100956.69;;;22.61;100.00
35647;BME280;28680;45.642;13.756;2023-07-28T05:32:40;100942.75;;;22.65;100.00
35647;BME280;28680;45.642;13.756;2023-07-28T05:35:15;100934.97;;;22.70;100.00
35647;BME280;28680;45.642;13.756;2023-07-28T05:37:42;100940.94;;;22.72;100.00
35647;BME280;28680;45.642;13.756;2023-07-28T05:40:08;100952.09;;;22.76;100.00
35647;BME280;28680;45.642;13.756;2023-07-28T05:42:35;100951.56;;;22.66;100.00
35647;BME280;28680;45.642;13.756;2023-07-28T05:45:02;100953.88;;;22.69;100.00
35647;BME280;28680;45.642;13.756;2023-07-28T05:47:29;100959.25;;;22.75;100.00
35647;BME280;28680;45.642;13.756;2023-07-28T05:49:55;100955.94;;;22.73;100.00
35647;BME280;28680;45.642;13.756;2023-07-28T05:52:22;100946.91;;;22.74;100.00
35647;BME280;28680;45.642;13.756;2023-07-28T05:54:48;100960.50;;;22.80;100.00
35647;BME280;28680;45.642;13.756;2023-07-28T05:57:14;100969.41;;;22.87;100.00
35647;BME280;28680;45.642;13.756;2023-07-28T05:59:40;100977.25;;;22.88;100.00
35647;BME280;28680;45.642;13.756;2023-07-28T06:02:06;100973.13;;;22.86;100.00
35647;BME280;28680;45.642;13.756;2023-07-28T06:04:32;100967.59;;;22.87;100.00
35647;BME280;28680;45.642;13.756;2023-07-28T06:07:00;100976.91;;;22.98;100.00
35647;BME280;28680;45.642;13.756;2023-07-28T06:09:26;100972.81;;;23.02;100.00
35647;BME280;28680;45.642;13.756;2023-07-28T06:11:53;100976.41;;;23.09;100.00
35647;BME280;28680;45.642;13.756;2023-07-28T06:14:19;100975.59;;;23.15;100.00
35647;BME280;28680;45.642;13.756;2023-07-28T06:16:46;100978.31;;;23.22;100.00
35647;BME280;28680;45.642;13.756;2023-07-28T06:19:12;100977.50;;;23.22;100.00
35647;BME280;28680;45.642;13.756;2023-07-28T06:21:40;100973.22;;;23.27;100.00
35647;BME280;28680;45.642;13.756;2023-07-28T06:24:06;100977.34;;;23.30;100.00
35647;BME280;28680;45.642;13.756;2023-07-28T06:26:34;100977.34;;;23.30;100.00
35647;BME280;28680;45.642;13.756;2023-07-28T06:29:00;100977.97;;;23.32;100.00
35647;BME280;28680;45.642;13.756;2023-07-28T06:31:26;100987.66;;;23.40;100.00
35647;BME280;28680;45.642;13.756;2023-07-28T06:33:52;100985.25;;;23.51;100.00
35647;BME280;28680;45.642;13.756;2023-07-28T06:36:18;100982.38;;;23.53;100.00
35647;BME280;28680;45.642;13.756;2023-07-28T06:38:44;100978.91;;;23.59;100.00
35647;BME280;28680;45.642;13.756;2023-07-28T06:41:14;100975.84;;;23.69;100.00
35647;BME280;28680;45.642;13.756;2023-07-28T06:43:41;100969.25;;;23.71;100.00
35647;BME280;28680;45.642;13.756;2023-07-28T06:46:08;100978.41;;;23.84;100.00
35647;BME280;28680;45.642;13.756;2023-07-28T06:48:34;100979.47;;;23.89;100.00
35647;BME280;28680;45.642;13.756;2023-07-28T06:51:01;100987.50;;;23.96;100.00
35647;BME280;28680;45.642;13.756;2023-07-28T06:53:28;100971.03;;;24.06;100.00
35647;BME280;28680;45.642;13.756;2023-07-28T06:55:54;100986.09;;;24.13;100.00
35647;BME280;28680;45.642;13.756;2023-07-28T06:58:22;100980.94;;;24.19;100.00
35647;BME280;28680;45.642;13.756;2023-07-28T07:00:48;100980.72;;;24.13;100.00
35647;BME280;28680;45.642;13.756;2023-07-28T07:03:14;100985.69;;;24.23;100.00
35647;BME280;28680;45.642;13.756;2023-07-28T07:05:40;100984.69;;;24.31;100.00
35647;BME280;28680;45.642;13.756;2023-07-28T07:08:06;100990.66;;;24.33;100.00
35647;BME280;28680;45.642;13.756;2023-07-28T07:10:32;100998.28;;;24.29;100.00
35647;BME280;28680;45.642;13.756;2023-07-28T07:12:59;101001.16;;;24.35;100.00
35647;BME280;28680;45.642;13.756;2023-07-28T07:15:25;100999.13;;;24.30;100.00
35647;BME280;28680;45.642;13.756;2023-07-28T07:17:54;101005.31;;;24.44;100.00
35647;BME280;28680;45.642;13.756;2023-07-28T07:20:23;101003.91;;;24.55;100.00
35647;BME280;28680;45.642;13.756;2023-07-28T07:22:49;101010.53;;;24.65;100.00
35647;BME280;28680;45.642;13.756;2023-07-28T07:25:15;101005.78;;;24.67;100.00
35647;BME280;28680;45.642;13.756;2023-07-28T07:27:54;101005.97;;;24.79;100.00
35647;BME280;28680;45.642;13.756;2023-07-28T07:30:21;101003.47;;;24.91;100.00
35647;BME280;28680;45.642;13.756;2023-07-28T07:32:47;101014.00;;;24.99;100.00
35647;BME280;28680;45.642;13.756;2023-07-28T07:35:16;101011.28;;;25.13;100.00
35647;BME280;28680;45.642;13.756;2023-07-28T07:37:42;101018.31;;;25.20;100.00
35647;BME280;28680;45.642;13.756;2023-07-28T07:40:09;101014.59;;;25.28;100.00
35647;BME280;28680;45.642;13.756;2023-07-28T07:43:02;101023.88;;;25.39;100.00
35647;BME280;28680;45.642;13.756;2023-07-28T07:45:34;101019.06;;;25.47;100.00
35647;BME280;28680;45.642;13.756;2023-07-28T07:48:00;101018.88;;;25.42;100.00
35647;BME280;28680;45.642;13.756;2023-07-28T07:50:38;101008.13;;;25.49;100.00
35647;BME280;28680;45.642;13.756;2023-07-28T07:53:56;101015.88;;;25.71;100.00
35647;BME280;28680;45.642;13.756;2023-07-28T07:57:05;101026.47;;;25.59;100.00
35647;BME280;28680;45.642;13.756;2023-07-28T07:59:41;101024.78;;;25.71;100.00
35647;BME280;28680;45.642;13.756;2023-07-28T08:02:19;101022.03;;;25.84;100.00
35647;BME280;28680;45.642;13.756;2023-07-28T08:04:45;101034.41;;;25.85;100.00
35647;BME280;28680;45.642;13.756;2023-07-28T08:07:13;101018.91;;;25.94;100.00
35647;BME280;28680;45.642;13.756;2023-07-28T08:09:42;101023.59;;;26.05;100.00
35647;BME280;28680;45.642;13.756;2023-07-28T08:12:09;101018.34;;;26.17;100.00
35647;BME280;28680;45.642;13.756;2023-07-28T08:14:35;101021.00;;;26.24;100.00
35647;BME280;28680;45.642;13.756;2023-07-28T08:17:03;101020.75;;;26.32;100.00
35647;BME280;28680;45.642;13.756;2023-07-28T08:19:32;101017.38;;;26.37;100.00
35647;BME280;28680;45.642;13.756;2023-07-28T08:21:58;101012.56;;;26.45;100.00
35647;BME280;28680;45.642;13.756;2023-07-28T08:24:24;101026.03;;;26.45;100.00
35647;BME280;28680;45.642;13.756;2023-07-28T08:26:50;101022.75;;;26.37;100.00
35647;BME280;28680;45.642;13.756;2023-07-28T08:29:16;101028.50;;;26.47;100.00
35647;BME280;28680;45.642;13.756;2023-07-28T08:31:42;101029.09;;;26.49;100.00
35647;BME280;28680;45.642;13.756;2023-07-28T08:34:08;101033.28;;;26.45;100.00
35647;BME280;28680;45.642;13.756;2023-07-28T08:36:34;101027.69;;;26.47;100.00
35647;BME280;28680;45.642;13.756;2023-07-28T08:39:01;101024.00;;;26.41;100.00
35647;BME280;28680;45.642;13.756;2023-07-28T08:41:28;101037.22;;;26.42;100.00
35647;BME280;28680;45.642;13.756;2023-07-28T08:43:54;101029.88;;;26.56;100.00
35647;BME280;28680;45.642;13.756;2023-07-28T08:46:20;101037.53;;;26.59;100.00
35647;BME280;28680;45.642;13.756;2023-07-28T08:48:48;101037.16;;;26.81;100.00
35647;BME280;28680;45.642;13.756;2023-07-28T08:51:14;101033.16;;;26.90;100.00
35647;BME280;28680;45.642;13.756;2023-07-28T08:53:40;101035.47;;;27.05;100.00
35647;BME280;28680;45.642;13.756;2023-07-28T08:56:06;101038.81;;;27.26;100.00
35647;BME280;28680;45.642;13.756;2023-07-28T08:58:32;101035.63;;;27.35;100.00
35647;BME280;28680;45.642;13.756;2023-07-28T09:00:59;101034.41;;;27.31;100.00
35647;BME280;28680;45.642;13.756;2023-07-28T09:03:27;101038.66;;;27.20;100.00
35647;BME280;28680;45.642;13.756;2023-07-28T09:06:00;101033.41;;;27.07;100.00
35647;BME280;28680;45.642;13.756;2023-07-28T09:08:27;101036.09;;;27.07;100.00
35647;BME280;28680;45.642;13.756;2023-07-28T09:10:53;101034.22;;;27.08;100.00
35647;BME280;28680;45.642;13.756;2023-07-28T09:13:22;101032.56;;;27.07;100.00
35647;BME280;28680;45.642;13.756;2023-07-28T09:15:48;101033.25;;;27.02;100.00
35647;BME280;28680;45.642;13.756;2023-07-28T09:18:17;101027.34;;;27.12;100.00
35647;BME280;28680;45.642;13.756;2023-07-28T09:20:43;101033.69;;;27.17;100.00
35647;BME280;28680;45.642;13.756;2023-07-28T09:23:10;101037.00;;;27.19;100.00
35647;BME280;28680;45.642;13.756;2023-07-28T09:25:37;101029.13;;;27.18;100.00
35647;BME280;28680;45.642;13.756;2023-07-28T09:28:04;101030.25;;;27.35;100.00
35647;BME280;28680;45.642;13.756;2023-07-28T09:30:48;101036.13;;;27.44;100.00
35647;BME280;28680;45.642;13.756;2023-07-28T09:33:32;101033.78;;;27.85;100.00
35647;BME280;28680;45.642;13.756;2023-07-28T09:36:16;101021.19;;;27.97;100.00
35647;BME280;28680;45.642;13.756;2023-07-28T09:38:42;101021.78;;;27.80;100.00
35647;BME280;28680;45.642;13.756;2023-07-28T09:41:09;101023.25;;;27.65;100.00
35647;BME280;28680;45.642;13.756;2023-07-28T09:43:41;101021.69;;;27.57;100.00
35647;BME280;28680;45.642;13.756;2023-07-28T09:46:09;101021.13;;;27.67;100.00
35647;BME280;28680;45.642;13.756;2023-07-28T09:48:38;101013.19;;;27.90;100.00
35647;BME280;28680;45.642;13.756;2023-07-28T09:51:18;101005.09;;;27.90;100.00
35647;BME280;28680;45.642;13.756;2023-07-28T09:54:05;101009.66;;;27.90;100.00
35647;BME280;28680;45.642;13.756;2023-07-28T09:56:31;101009.03;;;28.18;100.00
35647;BME280;28680;45.642;13.756;2023-07-28T09:58:59;101009.44;;;28.33;100.00
35647;BME280;28680;45.642;13.756;2023-07-28T10:01:30;101009.03;;;28.18;100.00
35647;BME280;28680;45.642;13.756;2023-07-28T10:03:58;101002.94;;;28.53;100.00
35647;BME280;28680;45.642;13.756;2023-07-28T10:06:50;101004.00;;;28.75;100.00
35647;BME280;28680;45.642;13.756;2023-07-28T10:09:17;101010.09;;;28.71;100.00
35647;BME280;28680;45.642;13.756;2023-07-28T10:12:03;100994.25;;;28.86;100.00
35647;BME280;28680;45.642;13.756;2023-07-28T10:14:35;100997.53;;;28.76;100.00
35647;BME280;28680;45.642;13.756;2023-07-28T10:17:05;100997.53;;;28.76;100.00
35647;BME280;28680;45.642;13.756;2023-07-28T10:19:36;100993.09;;;28.58;100.00
35647;BME280;28680;45.642;13.756;2023-07-28T10:22:08;100987.41;;;28.60;100.00
35647;BME280;28680;45.642;13.756;2023-07-28T10:24:54;100979.09;;;28.62;100.00
35647;BME280;28680;45.642;13.756;2023-07-28T10:27:36;100980.16;;;28.61;100.00
35647;BME280;28680;45.642;13.756;2023-07-28T10:30:14;100969.72;;;28.64;100.00
35647;BME280;28680;45.642;13.756;2023-07-28T10:32:45;100968.41;;;28.90;100.00
35647;BME280;28680;45.642;13.756;2023-07-28T10:37:45;100964.38;;;29.05;100.00
35647;BME280;28680;45.642;13.756;2023-07-28T10:40:33;100970.16;;;29.08;100.00
35647;BME280;28680;45.642;13.756;2023-07-28T10:43:05;100974.00;;;29.12;100.00
35647;BME280;28680;45.642;13.756;2023-07-28T10:45:32;100967.22;;;29.10;100.00
35647;BME280;28680;45.642;13.756;2023-07-28T10:47:59;100973.06;;;29.07;100.00
35647;BME280;28680;45.642;13.756;2023-07-28T10:50:30;100964.63;;;29.03;100.00
35647;BME280;28680;45.642;13.756;2023-07-28T10:52:57;100963.56;;;29.04;100.00
35647;BME280;28680;45.642;13.756;2023-07-28T10:55:26;100972.97;;;29.02;100.00
35647;BME280;28680;45.642;13.756;2023-07-28T10:57:54;100971.81;;;29.09;100.00
35647;BME280;28680;45.642;13.756;2023-07-28T11:00:22;100971.22;;;28.95;100.00
35647;BME280;28680;45.642;13.756;2023-07-28T11:02:52;100971.94;;;28.91;100.00
35647;BME280;28680;45.642;13.756;2023-07-28T11:05:20;100973.47;;;28.87;100.00
35647;BME280;28680;45.642;13.756;2023-07-28T11:07:48;100967.50;;;28.85;100.00
35647;BME280;28680;45.642;13.756;2023-07-28T11:10:14;100966.41;;;28.86;100.00
35647;BME280;28680;45.642;13.756;2023-07-28T11:12:46;100963.72;;;28.86;100.00
35647;BME280;28680;45.642;13.756;2023-07-28T11:15:14;100964.78;;;28.85;100.00
35647;BME280;28680;45.642;13.756;2023-07-28T11:17:42;100972.53;;;28.81;100.00
35647;BME280;28680;45.642;13.756;2023-07-28T11:20:27;100976.28;;;28.80;100.00
35647;BME280;28680;45.642;13.756;2023-07-28T11:23:03;100970.88;;;28.80;100.00
35647;BME280;28680;45.642;13.756;2023-07-28T11:25:31;100968.66;;;28.89;100.00
35647;BME280;28680;45.642;13.756;2023-07-28T11:28:00;100971.31;;;29.24;100.00
35647;BME280;28680;45.642;13.756;2023-07-28T11:30:38;100960.13;;;29.32;100.00
35647;BME280;28680;45.642;13.756;2023-07-28T11:33:04;100961.69;;;29.16;100.00
35647;BME280;28680;45.642;13.756;2023-07-28T11:35:34;100954.03;;;29.25;100.00
35647;BME280;28680;45.642;13.756;2023-07-28T11:38:01;100947.00;;;29.12;100.00
35647;BME280;28680;45.642;13.756;2023-07-28T11:40:30;100948.63;;;29.25;100.00
35647;BME280;28680;45.642;13.756;2023-07-28T11:42:56;100951.22;;;29.20;100.00
35647;BME280;28680;45.642;13.756;2023-07-28T11:45:23;100949.91;;;29.11;100.00
35647;BME280;28680;45.642;13.756;2023-07-28T11:48:03;100944.91;;;29.14;100.00
35647;BME280;28680;45.642;13.756;2023-07-28T11:50:37;100955.81;;;29.08;100.00
35647;BME280;28680;45.642;13.756;2023-07-28T11:53:05;100956.88;;;29.07;100.00
35647;BME280;28680;45.642;13.756;2023-07-28T11:55:34;100953.13;;;29.08;100.00
35647;BME280;28680;45.642;13.756;2023-07-28T11:58:01;100944.78;;;29.09;100.00
35647;BME280;28680;45.642;13.756;2023-07-28T12:04:50;100937.16;;;29.47;100.00
35647;BME280;28680;45.642;13.756;2023-07-28T12:34:23;100938.22;;;29.46;100.00
35647;BME280;28680;45.642;13.756;2023-07-28T12:40:43;100926.69;;;29.79;100.00
35647;BME280;28680;45.642;13.756;2023-07-28T12:43:09;100928.72;;;29.72;100.00
35647;BME280;28680;45.642;13.756;2023-07-28T12:45:35;100928.47;;;29.73;100.00
35647;BME280;28680;45.642;13.756;2023-07-28T12:48:31;100921.94;;;29.86;100.00
35647;BME280;28680;45.642;13.756;2023-07-28T12:51:11;100933.28;;;29.83;100.00
35647;BME280;28680;45.642;13.756;2023-07-28T12:53:46;100930.56;;;29.71;100.00
35647;BME280;28680;45.642;13.756;2023-07-28T12:56:21;100927.56;;;30.13;100.00
35647;BME280;28680;45.642;13.756;2023-07-28T12:58:50;100934.25;;;30.11;100.00
35647;BME280;28680;45.642;13.756;2023-07-28T13:01:16;100924.41;;;29.88;100.00
35647;BME280;28680;45.642;13.756;2023-07-28T13:03:42;100929.75;;;30.17;100.00
35647;BME280;28680;45.642;13.756;2023-07-28T13:06:08;100927.59;;;30.19;100.00
35647;BME280;28680;45.642;13.756;2023-07-28T13:08:34;100923.44;;;30.28;100.00
35647;BME280;28680;45.642;13.756;2023-07-28T13:11:04;100926.06;;;30.23;100.00
35647;BME280;28680;45.642;13.756;2023-07-28T13:13:30;100926.97;;;30.45;100.00
35647;BME280;28680;45.642;13.756;2023-07-28T13:15:57;100916.03;;;30.96;100.00
35647;BME280;28680;45.642;13.756;2023-07-28T13:18:24;100917.88;;;30.90;100.00
35647;BME280;28680;45.642;13.756;2023-07-28T13:20:51;100923.53;;;30.89;100.00